Time;durP1;ratioP1;P1;durP2;ratioP2;P2;SDS_P1;SDS_P2;PMS_P1;PMS_P2;Temp;Humidity;BMP_temperature;BMP_pressure;BME280_temperature;BME280_humidity;BME280_pressure;Samples;Min_cycle;Max_cycle;Signal;HPM_P1;HPM_P2
2021/12/04 00:00:27;;;;;;;25.08;11.52;;;4.30;99.90;;;;;;5071878;28;20599;-78
2021/12/04 00:02:53;;;;;;;25.38;11.88;;;4.00;99.90;;;;;;5072821;28;20049;-79
2021/12/04 00:05:21;;;;;;;29.13;13.57;;;4.00;99.90;;;;;;5073872;28;20123;-79
2021/12/04 00:07:47;;;;;;;28.27;13.93;;;4.00;99.90;;;;;;5075558;28;20048;-78
2021/12/04 00:10:18;;;;;;;25.00;14.00;;;4.20;99.90;;;;;;5076416;28;20044;-79
2021/12/04 00:12:44;;;;;;;29.92;12.80;;;4.00;99.90;;;;;;5077044;28;20052;-79
2021/12/04 00:15:10;;;;;;;28.63;13.60;;;4.00;99.90;;;;;;5076066;28;20502;-79
2021/12/04 00:17:36;;;;;;;26.63;12.90;;;4.00;99.90;;;;;;5076255;28;20048;-79
2021/12/04 00:20:03;;;;;;;24.33;12.05;;;4.00;99.90;;;;;;5076359;28;20074;-78
2021/12/04 00:22:29;;;;;;;28.02;12.68;;;4.00;99.90;;;;;;5076279;28;20102;-78
2021/12/04 00:24:55;;;;;;;28.27;12.90;;;4.00;99.90;;;;;;5076211;28;20044;-78
2021/12/04 00:27:20;;;;;;;25.73;12.15;;;4.00;99.90;;;;;;5075034;28;20069;-78
2021/12/04 00:29:46;;;;;;;28.08;13.30;;;4.00;99.90;;;;;;5074992;28;20051;-79
2021/12/04 00:32:25;;;;;;;28.55;15.43;;;4.10;99.90;;;;;;5076660;28;20044;-79
2021/12/04 00:34:56;;;;;;;27.15;13.02;;;4.00;99.90;;;;;;5076709;28;20056;-79
2021/12/04 00:37:50;;;;;;;25.80;12.90;;;4.00;99.90;;;;;;5075920;28;20118;-78
2021/12/04 00:51:14;;;;;;;30.05;13.77;;;4.00;99.90;;;;;;5076263;28;20193;-79
2021/12/04 00:53:40;;;;;;;26.00;12.35;;;4.00;99.90;;;;;;5074542;28;20053;-79
2021/12/04 00:56:06;;;;;;;28.88;13.75;;;4.00;99.90;;;;;;5075854;28;20094;-78
2021/12/04 00:58:32;;;;;;;30.10;13.80;;;4.00;99.90;;;;;;5075728;28;20052;-79
2021/12/04 01:00:58;;;;;;;26.48;13.32;;;4.00;99.90;;;;;;5075659;28;20037;-78
2021/12/04 01:03:25;;;;;;;28.73;15.15;;;3.90;99.90;;;;;;5075591;28;20055;-79
2021/12/04 01:05:51;;;;;;;25.85;12.30;;;4.20;99.90;;;;;;5075823;28;20046;-79
2021/12/04 01:08:17;;;;;;;25.42;12.98;;;4.00;99.90;;;;;;5074575;28;20044;-80
2021/12/04 01:10:43;;;;;;;26.52;12.93;;;4.00;99.90;;;;;;5074418;28;20491;-79
2021/12/04 01:13:13;;;;;;;26.77;13.10;;;4.00;99.90;;;;;;5075431;28;20053;-80
2021/12/04 01:15:43;;;;;;;27.75;13.88;;;3.90;99.90;;;;;;5075340;28;20049;-79
2021/12/04 01:18:09;;;;;;;26.33;13.30;;;4.00;99.90;;;;;;5074525;28;20048;-78
2021/12/04 01:20:35;;;;;;;25.15;12.93;;;4.00;99.90;;;;;;5075805;28;20055;-79
2021/12/04 01:23:01;;;;;;;23.38;12.48;;;3.90;99.90;;;;;;5074012;28;20090;-79
2021/12/04 01:25:27;;;;;;;23.90;13.02;;;4.00;99.90;;;;;;5074219;28;20083;-79
2021/12/04 01:27:53;;;;;;;20.58;10.60;;;4.60;99.90;;;;;;5075099;28;20131;-78
2021/12/04 01:30:18;;;;;;;22.77;11.50;;;4.00;99.90;;;;;;5074921;28;20039;-78
2021/12/04 01:32:44;;;;;;;19.60;11.27;;;4.00;99.90;;;;;;5074911;28;20174;-78
2021/12/04 01:35:10;;;;;;;21.50;11.30;;;4.00;99.90;;;;;;5075015;28;20394;-79
2021/12/04 01:37:36;;;;;;;20.55;10.68;;;4.10;99.90;;;;;;5074874;28;20041;-79
2021/12/04 01:40:04;;;;;;;23.35;11.75;;;4.00;99.90;;;;;;5074170;28;20052;-78
2021/12/04 01:42:32;;;;;;;20.23;11.60;;;4.00;99.90;;;;;;5074807;28;20044;-80
2021/12/04 01:44:58;;;;;;;21.20;11.02;;;4.00;99.90;;;;;;5073868;28;20394;-79
2021/12/04 01:47:23;;;;;;;20.73;10.63;;;4.00;99.90;;;;;;5073683;28;20048;-78
2021/12/04 01:49:51;;;;;;;19.90;10.85;;;4.00;99.90;;;;;;5075170;28;20044;-80
2021/12/04 01:52:18;;;;;;;20.45;9.38;;;4.00;99.90;;;;;;5075425;28;20388;-79
2021/12/04 01:54:45;;;;;;;17.73;10.48;;;4.00;99.90;;;;;;5074615;28;20098;-79
2021/12/04 01:57:14;;;;;;;17.38;8.93;;;4.00;99.90;;;;;;5072897;28;20061;-78
2021/12/04 01:59:42;;;;;;;17.67;9.25;;;4.20;99.90;;;;;;5075001;28;20462;-78
2021/12/04 02:02:08;;;;;;;15.85;8.30;;;3.90;99.90;;;;;;5073444;28;20055;-80
2021/12/04 02:04:33;;;;;;;17.17;8.68;;;4.00;99.90;;;;;;5074977;28;20490;-79
2021/12/04 02:07:03;;;;;;;16.00;8.60;;;4.00;99.90;;;;;;5057476;28;20057;-80
2021/12/04 02:09:32;;;;;;;18.33;8.23;;;4.10;99.90;;;;;;5073015;28;20041;-78
2021/12/04 02:11:58;;;;;;;15.65;7.90;;;4.00;99.90;;;;;;5072932;28;20393;-78
2021/12/04 02:14:24;;;;;;;16.83;7.93;;;4.70;99.90;;;;;;5073963;28;20409;-77
2021/12/04 02:16:51;;;;;;;15.48;7.63;;;4.00;99.90;;;;;;5076667;28;20045;-79
2021/12/04 02:19:17;;;;;;;17.05;8.80;;;4.00;99.90;;;;;;5075232;28;20044;-80
2021/12/04 02:21:43;;;;;;;13.88;7.70;;;4.30;99.90;;;;;;5073108;28;20051;-79
2021/12/04 02:24:09;;;;;;;15.23;8.70;;;4.00;99.90;;;;;;5073999;28;20053;-78
2021/12/04 02:26:35;;;;;;;13.77;7.82;;;4.00;99.90;;;;;;5074007;28;20052;-79
2021/12/04 02:29:01;;;;;;;12.07;7.45;;;4.50;99.90;;;;;;5056316;28;20051;-79
2021/12/04 02:31:27;;;;;;;13.93;7.43;;;4.00;99.90;;;;;;5074046;28;20105;-78
2021/12/04 02:33:53;;;;;;;11.57;6.43;;;4.00;99.90;;;;;;5073857;28;20046;-79
2021/12/04 02:36:19;;;;;;;14.05;7.25;;;4.00;99.90;;;;;;5073835;28;20052;-79
2021/12/04 02:38:51;;;;;;;12.68;6.72;;;4.00;99.90;;;;;;5073892;28;20044;-78
2021/12/04 02:41:21;;;;;;;12.05;6.50;;;4.00;99.90;;;;;;5073089;28;20376;-79
2021/12/04 02:43:48;;;;;;;12.40;6.63;;;4.10;99.90;;;;;;5056338;28;20462;-78
2021/12/04 02:46:15;;;;;;;12.90;6.72;;;4.00;99.90;;;;;;5073731;28;20497;-78
2021/12/04 02:48:46;;;;;;;14.43;8.02;;;4.30;99.90;;;;;;5073294;28;20052;-79
2021/12/04 02:51:15;;;;;;;17.48;9.43;;;4.00;99.90;;;;;;5073602;28;20041;-79
2021/12/04 02:53:41;;;;;;;11.88;7.28;;;4.00;99.90;;;;;;5073382;28;20524;-78
2021/12/04 02:56:07;;;;;;;14.00;7.32;;;4.00;99.90;;;;;;5073623;28;20060;-80
2021/12/04 02:58:33;;;;;;;11.52;7.07;;;4.00;99.90;;;;;;5073559;28;20055;-80
2021/12/04 03:01:01;;;;;;;12.45;7.57;;;4.00;99.90;;;;;;5073568;28;20044;-80
2021/12/04 03:03:27;;;;;;;14.85;7.40;;;4.00;99.90;;;;;;5072575;28;20051;-80
2021/12/04 03:05:53;;;;;;;12.98;6.90;;;3.90;99.90;;;;;;5072293;28;20437;-80
2021/12/04 03:08:20;;;;;;;13.82;7.70;;;4.00;99.90;;;;;;5073461;28;20044;-80
2021/12/04 03:10:50;;;;;;;13.68;7.32;;;4.00;99.90;;;;;;5073360;28;20044;-80
2021/12/04 03:13:18;;;;;;;11.40;7.00;;;3.90;99.90;;;;;;5055980;28;20122;-79
2021/12/04 03:15:46;;;;;;;12.52;7.40;;;4.00;99.90;;;;;;5073911;28;20044;-80
2021/12/04 03:18:12;;;;;;;15.57;7.72;;;4.10;99.90;;;;;;5073314;28;20538;-80
2021/12/04 03:20:43;;;;;;;12.55;6.28;;;4.00;99.90;;;;;;5072587;28;20079;-80
2021/12/04 03:23:17;;;;;;;11.20;6.93;;;4.00;99.90;;;;;;5073152;28;20136;-80
2021/12/04 03:25:46;;;;;;;10.82;6.80;;;4.20;99.90;;;;;;5074016;28;20066;-80
2021/12/04 03:28:15;;;;;;;13.38;7.75;;;4.00;99.90;;;;;;5074080;28;20372;-80
2021/12/04 03:30:52;;;;;;;12.23;6.93;;;4.00;99.90;;;;;;5072253;28;20048;-80
2021/12/04 03:41:19;;;;;;;9.50;6.43;;;4.20;99.90;;;;;;5075672;28;20617;-79
2021/12/04 03:43:44;;;;;;;11.05;6.40;;;3.90;99.90;;;;;;5077138;28;20049;-78
2021/12/04 03:46:14;;;;;;;10.60;6.45;;;3.90;99.90;;;;;;5076155;28;20100;-79
2021/12/04 03:51:09;;;;;;;11.77;6.00;;;3.90;99.90;;;;;;5076449;28;20387;-79
2021/12/04 03:53:36;;;;;;;10.70;6.43;;;3.90;99.90;;;;;;5077483;28;20054;-80
2021/12/04 03:56:03;;;;;;;10.02;6.05;;;4.10;99.90;;;;;;5077124;28;20405;-78
2021/12/04 03:58:29;;;;;;;11.05;6.30;;;3.90;99.90;;;;;;5076786;28;20134;-80
2021/12/04 04:00:54;;;;;;;11.02;6.15;;;3.90;99.90;;;;;;5076370;28;20044;-80
2021/12/04 04:03:20;;;;;;;10.68;6.28;;;4.20;99.90;;;;;;5076300;28;20045;-78
2021/12/04 04:05:46;;;;;;;13.27;6.30;;;3.90;99.90;;;;;;5075707;28;20054;-79
2021/12/04 04:08:12;;;;;;;10.65;5.20;;;3.90;99.90;;;;;;5076663;28;20369;-80
2021/12/04 04:10:38;;;;;;;10.38;6.05;;;3.90;99.90;;;;;;5077343;28;20055;-79
2021/12/04 04:13:07;;;;;;;10.05;6.25;;;3.90;99.90;;;;;;5077336;28;20422;-79
2021/12/04 04:15:33;;;;;;;11.20;6.22;;;3.90;99.90;;;;;;5076454;28;20049;-80
2021/12/04 04:17:59;;;;;;;11.98;6.28;;;3.90;99.90;;;;;;5077093;28;20085;-80
2021/12/04 04:20:25;;;;;;;12.40;7.05;;;3.90;99.90;;;;;;5076359;28;20363;-79
2021/12/04 04:22:51;;;;;;;10.93;5.57;;;3.90;99.90;;;;;;5077135;28;20047;-80
2021/12/04 04:25:17;;;;;;;9.80;6.20;;;4.00;99.90;;;;;;5077145;28;20048;-80
2021/12/04 04:27:43;;;;;;;11.82;5.90;;;3.90;99.90;;;;;;5076706;28;20044;-80
2021/12/04 04:30:14;;;;;;;11.18;6.10;;;3.90;99.90;;;;;;5075302;28;20044;-80
2021/12/04 04:32:41;;;;;;;11.80;6.13;;;4.10;99.90;;;;;;5076134;28;20045;-80
2021/12/04 04:35:14;;;;;;;12.60;6.70;;;3.90;99.90;;;;;;5076063;28;20048;-80
2021/12/04 04:59:59;;;;;;;12.32;6.55;;;4.00;99.90;;;;;;5076248;28;20048;-79
2021/12/04 05:13:02;;;;;;;10.93;6.20;;;4.30;99.90;;;;;;5075653;28;20056;-80
2021/12/04 05:18:23;;;;;;;10.70;6.00;;;4.00;99.90;;;;;;5075480;28;20048;-80
2021/12/04 05:20:54;;;;;;;10.27;5.95;;;4.00;99.90;;;;;;5074725;28;20040;-81
2021/12/04 05:23:21;;;;;;;12.00;6.50;;;4.00;99.90;;;;;;5058189;28;20048;-80
2021/12/04 05:25:47;;;;;;;11.07;6.30;;;4.00;99.90;;;;;;5075124;28;20045;-80
2021/12/04 05:28:13;;;;;;;9.45;5.53;;;4.00;99.90;;;;;;5075058;28;20060;-80
2021/12/04 05:30:39;;;;;;;12.27;6.63;;;4.60;99.90;;;;;;5074950;28;20040;-81
2021/12/04 05:33:06;;;;;;;11.27;6.93;;;4.00;99.90;;;;;;5075272;28;20040;-80
2021/12/04 05:35:32;;;;;;;10.15;6.07;;;4.00;99.90;;;;;;5074665;28;20053;-80
2021/12/04 05:37:58;;;;;;;11.00;6.47;;;4.00;99.90;;;;;;5074873;28;20136;-80
2021/12/04 05:40:24;;;;;;;13.05;6.47;;;4.00;99.90;;;;;;5075503;28;20048;-80
2021/12/04 05:42:49;;;;;;;12.55;6.70;;;4.00;99.90;;;;;;5077357;28;20386;-80
2021/12/04 05:45:23;;;;;;;14.15;7.50;;;4.00;99.90;;;;;;5074805;28;20057;-79
2021/12/04 05:50:42;;;;;;;13.23;6.80;;;4.00;99.90;;;;;;5074571;28;20470;-79
2021/12/04 05:53:26;;;;;;;12.48;7.65;;;4.10;99.90;;;;;;5074319;28;20435;-79
2021/12/04 05:55:56;;;;;;;11.18;6.38;;;4.10;99.90;;;;;;5073394;28;20109;-79
2021/12/04 05:58:24;;;;;;;13.10;6.78;;;4.10;99.90;;;;;;5074390;28;20371;-80
2021/12/04 06:00:51;;;;;;;12.85;7.15;;;4.80;99.90;;;;;;5074365;28;20087;-80
2021/12/04 06:03:17;;;;;;;13.60;6.60;;;4.40;99.90;;;;;;5073993;28;20041;-80
2021/12/04 06:05:43;;;;;;;10.77;6.35;;;4.10;99.90;;;;;;5074697;28;20056;-79
2021/12/04 06:08:09;;;;;;;11.95;6.55;;;4.10;99.90;;;;;;5074198;28;20048;-80
2021/12/04 06:10:35;;;;;;;13.38;7.30;;;4.10;99.90;;;;;;5074088;28;20470;-80
2021/12/04 06:13:00;;;;;;;10.80;7.07;;;4.10;99.90;;;;;;5073118;28;20047;-79
2021/12/04 06:15:26;;;;;;;13.18;7.13;;;4.10;99.90;;;;;;5074067;28;20044;-80
2021/12/04 06:17:54;;;;;;;13.80;7.65;;;4.10;99.90;;;;;;5074002;28;20044;-80
2021/12/04 06:23:04;;;;;;;11.80;7.18;;;4.10;99.90;;;;;;5074010;28;20056;-80
2021/12/04 06:25:30;;;;;;;13.10;7.22;;;4.10;99.90;;;;;;5073033;28;20044;-81
2021/12/04 06:27:56;;;;;;;12.93;6.40;;;4.10;99.90;;;;;;5074566;28;20393;-81
2021/12/04 06:30:23;;;;;;;13.57;7.38;;;4.00;99.90;;;;;;5073828;28;20044;-80
2021/12/04 06:32:50;;;;;;;12.63;7.13;;;4.00;99.90;;;;;;5073865;28;20457;-80
2021/12/04 06:35:18;;;;;;;12.82;7.28;;;4.00;99.90;;;;;;5072886;28;20059;-81
2021/12/04 06:37:44;;;;;;;11.75;6.63;;;4.00;99.90;;;;;;5073832;28;20059;-80
2021/12/04 06:40:14;;;;;;;13.20;7.32;;;4.00;99.90;;;;;;5073855;28;20436;-81
2021/12/04 06:42:41;;;;;;;11.32;6.80;;;4.00;99.90;;;;;;5073734;28;20453;-81
2021/12/04 06:45:08;;;;;;;13.82;6.75;;;4.10;99.90;;;;;;5073713;28;20113;-81
2021/12/04 06:47:35;;;;;;;14.68;7.22;;;4.00;99.90;;;;;;5073306;28;20561;-81
2021/12/04 06:50:06;;;;;;;15.32;7.88;;;4.40;99.90;;;;;;5073532;28;20048;-81
2021/12/04 06:52:32;;;;;;;16.33;7.70;;;4.00;99.90;;;;;;5073451;28;20456;-81
2021/12/04 06:55:01;;;;;;;12.82;7.93;;;4.00;99.90;;;;;;5073495;28;20086;-80
2021/12/04 06:57:29;;;;;;;14.38;7.35;;;4.00;99.90;;;;;;5074681;28;20061;-81
2021/12/04 06:59:56;;;;;;;15.07;7.93;;;4.10;99.90;;;;;;5073493;28;20045;-81
2021/12/04 07:02:22;;;;;;;14.15;7.30;;;4.00;99.90;;;;;;5073981;28;20084;-80
2021/12/04 07:04:48;;;;;;;13.90;7.50;;;4.20;99.90;;;;;;5072491;28;20080;-80
2021/12/04 07:07:15;;;;;;;13.73;6.70;;;4.00;99.90;;;;;;5072453;28;20067;-80
2021/12/04 07:09:41;;;;;;;13.25;7.13;;;4.10;99.90;;;;;;5073661;28;20086;-81
2021/12/04 07:12:08;;;;;;;12.45;7.43;;;4.30;99.90;;;;;;5072287;28;20056;-81
2021/12/04 07:14:34;;;;;;;14.23;6.75;;;4.00;99.90;;;;;;5073836;28;20066;-81
2021/12/04 07:17:02;;;;;;;12.98;6.85;;;4.00;99.90;;;;;;5073807;28;20044;-80
2021/12/04 07:19:29;;;;;;;15.88;7.72;;;4.00;99.90;;;;;;5072187;28;20496;-81
2021/12/04 07:21:55;;;;;;;12.73;6.25;;;4.00;99.90;;;;;;5072097;28;20040;-81
2021/12/04 07:24:20;;;;;;;13.77;8.25;;;4.00;99.90;;;;;;5073061;28;20046;-80
2021/12/04 07:26:46;;;;;;;14.20;7.35;;;4.30;99.90;;;;;;5072720;28;20396;-81
2021/12/04 07:29:12;;;;;;;12.38;7.93;;;4.00;99.90;;;;;;5055478;28;20053;-80
2021/12/04 07:31:39;;;;;;;15.80;8.00;;;4.10;99.90;;;;;;5072999;28;20357;-79
2021/12/04 07:34:06;;;;;;;15.57;8.27;;;4.30;99.90;;;;;;5073959;28;20053;-80
2021/12/04 07:36:32;;;;;;;17.42;9.00;;;4.10;99.90;;;;;;5073143;28;20127;-80
2021/12/04 07:38:59;;;;;;;14.90;8.38;;;4.10;99.90;;;;;;5073094;28;20059;-80
2021/12/04 07:41:26;;;;;;;19.40;9.60;;;4.20;99.90;;;;;;5072356;28;20359;-80
2021/12/04 07:43:52;;;;;;;19.00;9.40;;;4.10;99.90;;;;;;5073863;28;20128;-80
2021/12/04 07:46:18;;;;;;;21.15;10.25;;;4.10;99.90;;;;;;5073400;28;20473;-80
2021/12/04 07:48:43;;;;;;;20.05;10.32;;;4.30;99.90;;;;;;5072883;28;20570;-80
2021/12/04 07:51:10;;;;;;;21.10;10.38;;;4.10;99.90;;;;;;5071315;28;20040;-77
2021/12/04 07:53:36;;;;;;;21.77;9.60;;;4.20;99.90;;;;;;5071937;28;20056;-78
2021/12/04 07:56:03;;;;;;;19.83;10.40;;;4.20;99.90;;;;;;5071372;28;20052;-78
2021/12/04 07:58:30;;;;;;;20.55;9.63;;;4.10;99.90;;;;;;5071872;28;20048;-78
2021/12/04 08:00:55;;;;;;;22.15;10.63;;;4.30;99.90;;;;;;5038959;28;20057;-79
2021/12/04 08:03:21;;;;;;;22.73;10.70;;;4.20;99.90;;;;;;5073676;28;20067;-79
2021/12/04 08:05:47;;;;;;;23.17;10.25;;;4.20;99.90;;;;;;5071731;28;20051;-79
2021/12/04 08:08:13;;;;;;;24.50;11.15;;;4.20;99.90;;;;;;5072762;28;20098;-79
2021/12/04 08:10:40;;;;;;;21.00;9.90;;;4.20;99.90;;;;;;5072266;28;20128;-79
2021/12/04 08:13:06;;;;;;;19.25;8.90;;;4.20;99.90;;;;;;5072606;28;20044;-78
2021/12/04 08:15:33;;;;;;;20.27;9.07;;;4.20;99.90;;;;;;5071772;28;20083;-79
2021/12/04 08:17:59;;;;;;;20.55;9.52;;;4.20;99.90;;;;;;5071735;28;20059;-79
2021/12/04 08:20:25;;;;;;;21.30;9.98;;;4.20;99.90;;;;;;5072666;28;20041;-78
2021/12/04 08:22:51;;;;;;;22.70;10.30;;;4.30;99.90;;;;;;5055111;28;20389;-78
2021/12/04 08:25:19;;;;;;;20.00;9.70;;;4.40;99.90;;;;;;5072679;28;20045;-78
2021/12/04 08:27:47;;;;;;;18.48;8.85;;;4.80;99.90;;;;;;5075776;28;20165;-78
2021/12/04 08:30:17;;;;;;;19.50;9.05;;;4.20;99.90;;;;;;5058565;28;20048;-78
2021/12/04 08:32:43;;;;;;;20.45;9.98;;;4.40;99.90;;;;;;5076093;28;20424;-79
2021/12/04 08:35:11;;;;;;;20.67;9.60;;;4.30;99.90;;;;;;5075340;28;20062;-78
2021/12/04 08:37:37;;;;;;;18.63;8.98;;;4.30;99.90;;;;;;5076067;28;20066;-78
2021/12/04 08:40:10;;;;;;;18.92;8.82;;;4.30;99.90;;;;;;5075819;28;20059;-78
2021/12/04 08:42:37;;;;;;;18.90;9.23;;;4.30;99.90;;;;;;5075935;28;20040;-78
2021/12/04 08:45:04;;;;;;;18.50;8.77;;;4.30;99.90;;;;;;5075737;28;20423;-80
2021/12/04 08:47:30;;;;;;;23.05;9.88;;;4.30;99.90;;;;;;5076052;28;20148;-79
2021/12/04 08:49:55;;;;;;;19.55;8.93;;;4.30;99.90;;;;;;5058936;28;20528;-79
2021/12/04 08:52:21;;;;;;;19.17;9.25;;;4.30;99.90;;;;;;5058206;28;20451;-78
2021/12/04 08:54:47;;;;;;;20.25;9.40;;;4.30;99.90;;;;;;5074757;28;20040;-78
2021/12/04 08:57:13;;;;;;;19.13;9.35;;;4.80;99.90;;;;;;5074448;28;20389;-78
2021/12/04 08:59:39;;;;;;;22.30;10.48;;;4.50;99.90;;;;;;5058004;28;20075;-78
2021/12/04 09:02:06;;;;;;;20.52;9.63;;;4.60;99.90;;;;;;5075599;28;20052;-79
2021/12/04 09:04:35;;;;;;;22.92;11.15;;;4.40;99.90;;;;;;5074378;28;20078;-79
2021/12/04 09:07:02;;;;;;;24.42;10.15;;;4.40;99.90;;;;;;5075700;28;20037;-79
2021/12/04 09:09:28;;;;;;;25.38;10.65;;;4.40;99.90;;;;;;5078818;28;20048;-80
2021/12/04 09:12:01;;;;;;;25.52;10.27;;;4.50;99.90;;;;;;5076134;28;20048;-79
2021/12/04 09:14:30;;;;;;;27.38;10.85;;;4.50;99.90;;;;;;5074886;28;20056;-87
2021/12/04 09:16:58;;;;;;;24.38;11.07;;;4.50;99.90;;;;;;5074255;28;20045;-79
2021/12/04 09:19:24;;;;;;;21.23;11.05;;;4.50;99.90;;;;;;5075119;28;20048;-81
2021/12/04 09:21:52;;;;;;;22.52;11.00;;;4.50;99.90;;;;;;5075694;28;20454;-82
2021/12/04 09:24:25;;;;;;;25.65;10.65;;;4.50;99.90;;;;;;5074145;28;20044;-80
2021/12/04 09:34:58;;;;;;;26.13;10.57;;;4.50;99.90;;;;;;5074972;28;20507;-84
2021/12/04 10:04:38;;;;;;;29.20;12.35;;;4.60;99.90;;;;;;5073776;28;20363;-82
2021/12/04 10:33:57;;;;;;;29.92;13.50;;;4.80;99.90;;;;;;5074617;28;20508;-76
2021/12/04 10:36:30;;;;;;;32.30;13.35;;;4.80;99.90;;;;;;5074188;28;20588;-78
2021/12/04 10:38:56;;;;;;;35.65;14.80;;;4.90;99.90;;;;;;5073556;28;20381;-77
2021/12/04 10:41:43;;;;;;;34.97;15.48;;;5.10;99.90;;;;;;5073547;28;20087;-83
2021/12/04 10:44:14;;;;;;;25.00;11.50;;;5.00;99.90;;;;;;5073371;28;20385;-82
2021/12/04 10:46:56;;;;;;;33.42;12.45;;;4.90;99.90;;;;;;5074442;28;20149;-79
2021/12/04 10:49:35;;;;;;;27.35;11.88;;;4.90;99.90;;;;;;5072783;28;20045;-78
2021/12/04 10:52:04;;;;;;;29.48;12.90;;;4.90;99.90;;;;;;5073410;28;20056;-80
2021/12/04 10:54:38;;;;;;;30.95;12.43;;;4.80;99.90;;;;;;5073533;28;20378;-82
2021/12/04 11:00:12;;;;;;;26.02;12.25;;;4.80;99.90;;;;;;5058000;28;20056;-79
2021/12/04 11:02:47;;;;;;;27.67;12.85;;;4.90;99.90;;;;;;5072359;28;20048;-77
2021/12/04 11:22:12;;;;;;;27.95;11.93;;;5.10;99.90;;;;;;5064386;28;20386;-77
2021/12/04 11:42:53;;;;;;;35.65;14.63;;;5.10;99.90;;;;;;5073543;28;20140;-79
2021/12/04 11:45:29;;;;;;;34.53;14.68;;;5.10;99.90;;;;;;5073831;28;20037;-77
2021/12/04 11:47:58;;;;;;;38.35;16.35;;;5.00;99.90;;;;;;5071923;28;20110;-80
2021/12/04 11:50:33;;;;;;;36.55;15.85;;;5.50;99.90;;;;;;5072816;28;20086;-76
2021/12/04 11:53:04;;;;;;;32.22;16.17;;;5.00;99.90;;;;;;5073172;28;20493;-75
2021/12/04 11:55:34;;;;;;;37.40;15.60;;;5.00;99.90;;;;;;5073876;28;20047;-76
2021/12/04 11:58:00;;;;;;;37.80;17.52;;;5.00;99.90;;;;;;5073141;28;20139;-80
2021/12/04 12:00:33;;;;;;;38.58;17.13;;;4.90;99.90;;;;;;5071589;28;20508;-78
2021/12/04 12:03:09;;;;;;;38.35;15.65;;;4.90;99.90;;;;;;5076837;28;20048;-77
2021/12/04 12:05:51;;;;;;;46.55;18.08;;;5.00;99.90;;;;;;5076502;28;20056;-77
2021/12/04 12:08:36;;;;;;;42.70;16.65;;;5.00;99.90;;;;;;5076579;28;20049;-77
2021/12/04 12:11:12;;;;;;;43.55;18.40;;;5.00;99.90;;;;;;5075461;28;20048;-77
2021/12/04 12:13:47;;;;;;;44.42;18.85;;;5.00;99.90;;;;;;5076798;28;20396;-77
2021/12/04 12:16:24;;;;;;;52.45;21.75;;;5.00;99.90;;;;;;5076779;28;20052;-76
2021/12/04 12:18:57;;;;;;;54.10;21.58;;;5.00;99.90;;;;;;5076777;28;20380;-76
2021/12/04 12:21:41;;;;;;;51.78;20.67;;;5.00;99.90;;;;;;5076274;28;20049;-77
2021/12/04 12:36:03;;;;;;;36.17;16.00;;;5.10;99.90;;;;;;5076455;28;20472;-76
2021/12/04 12:38:37;;;;;;;40.30;17.67;;;5.10;99.90;;;;;;5076028;28;20056;-76
2021/12/04 12:41:27;;;;;;;43.47;19.30;;;5.10;99.90;;;;;;5075916;28;20469;-75
2021/12/04 12:44:02;;;;;;;41.65;16.90;;;5.10;99.90;;;;;;5076901;28;20098;-75
2021/12/04 12:46:44;;;;;;;40.47;15.93;;;5.10;99.90;;;;;;5079099;28;20101;-75
2021/12/04 12:49:37;;;;;;;40.30;15.95;;;5.10;99.90;;;;;;5077440;28;20131;-76
2021/12/04 12:52:24;;;;;;;38.05;16.83;;;5.10;99.90;;;;;;5074842;28;20501;-76
2021/12/04 12:55:13;;;;;;;36.33;15.57;;;5.10;99.90;;;;;;5075676;28;20044;-76
2021/12/04 12:57:43;;;;;;;36.58;15.23;;;5.20;99.90;;;;;;5072695;28;20403;-80
2021/12/04 13:14:30;;;;;;;39.83;17.10;;;5.20;99.90;;;;;;5074358;28;20520;-79
2021/12/04 13:17:07;;;;;;;40.10;16.13;;;5.10;99.90;;;;;;5075196;28;20079;-79
2021/12/04 13:19:36;;;;;;;38.92;16.17;;;5.10;99.90;;;;;;5075225;28;20060;-77
2021/12/04 13:22:06;;;;;;;41.55;17.45;;;5.10;99.90;;;;;;5075227;28;20189;-80
2021/12/04 13:24:35;;;;;;;40.58;19.00;;;5.10;99.90;;;;;;5075201;28;20037;-78
2021/12/04 13:29:40;;;;;;;49.47;18.48;;;5.10;99.90;;;;;;5074932;28;20059;-80
2021/12/04 13:32:07;;;;;;;44.17;18.17;;;5.10;99.90;;;;;;5075003;28;20053;-80
2021/12/04 13:34:35;;;;;;;47.60;17.60;;;5.10;99.90;;;;;;5074780;28;20131;-80
2021/12/04 13:37:01;;;;;;;48.47;17.48;;;5.10;99.90;;;;;;5074890;28;20052;-77
2021/12/04 13:39:27;;;;;;;54.60;19.38;;;5.10;99.90;;;;;;5074634;28;20102;-78
2021/12/04 13:41:54;;;;;;;50.58;20.40;;;5.10;99.90;;;;;;5073581;28;20050;-83
2021/12/04 13:44:22;;;;;;;51.78;19.65;;;5.10;99.90;;;;;;5074643;28;20045;-81
2021/12/04 13:46:49;;;;;;;53.50;18.77;;;5.00;99.90;;;;;;5074740;28;20106;-81
2021/12/04 13:49:26;;;;;;;51.92;18.80;;;5.10;99.90;;;;;;5075363;28;20119;-82
2021/12/04 13:51:59;;;;;;;51.65;20.23;;;5.10;99.90;;;;;;5073788;28;20127;-81
2021/12/04 13:54:28;;;;;;;59.70;19.80;;;5.10;99.90;;;;;;5073488;28;20130;-78
2021/12/04 13:56:54;;;;;;;51.17;19.48;;;5.00;99.90;;;;;;5073819;28;20456;-80
2021/12/04 13:59:25;;;;;;;58.78;20.95;;;5.10;99.90;;;;;;5074084;28;20044;-79
2021/12/04 14:01:51;;;;;;;52.83;20.60;;;5.10;99.90;;;;;;5073980;28;20446;-78
2021/12/04 14:04:19;;;;;;;54.35;19.42;;;5.10;99.90;;;;;;5073293;28;20044;-77
2021/12/04 14:06:56;;;;;;;52.47;18.52;;;5.00;99.90;;;;;;5074285;28;20131;-78
2021/12/04 14:09:29;;;;;;;47.20;17.77;;;5.10;99.90;;;;;;5072908;28;20048;-78
2021/12/04 14:11:55;;;;;;;50.47;20.27;;;5.20;99.90;;;;;;5073421;28;20053;-84
2021/12/04 14:14:24;;;;;;;46.97;19.20;;;5.20;99.90;;;;;;5074155;28;20378;-81
2021/12/04 14:16:52;;;;;;;46.70;17.67;;;5.10;99.90;;;;;;5074001;28;20123;-83
2021/12/04 14:19:26;;;;;;;48.17;18.70;;;5.10;99.90;;;;;;5072993;28;20048;-79
2021/12/04 14:21:58;;;;;;;46.08;18.10;;;5.10;99.90;;;;;;5074278;28;20051;-79
2021/12/04 14:24:29;;;;;;;46.78;18.23;;;5.30;99.90;;;;;;5073710;28;20123;-79
2021/12/04 14:26:57;;;;;;;45.30;19.15;;;5.10;99.90;;;;;;5073827;28;20505;-78
2021/12/04 14:29:25;;;;;;;43.83;17.95;;;5.10;99.90;;;;;;5055729;28;20052;-77
2021/12/04 14:31:53;;;;;;;46.70;18.52;;;5.10;99.90;;;;;;5073597;28;20055;-77
2021/12/04 14:34:21;;;;;;;45.35;18.33;;;5.10;99.90;;;;;;5072912;28;20055;-81
2021/12/04 14:36:47;;;;;;;43.97;18.13;;;5.20;99.90;;;;;;5056129;28;20048;-80
2021/12/04 14:39:23;;;;;;;42.00;17.50;;;5.10;99.90;;;;;;5073720;28;20049;-76
2021/12/04 14:41:49;;;;;;;44.72;18.35;;;5.10;99.90;;;;;;5074502;28;20044;-81
2021/12/04 14:44:15;;;;;;;45.60;18.58;;;5.10;99.90;;;;;;5073717;28;20146;-82
2021/12/04 14:46:41;;;;;;;45.25;19.83;;;5.10;99.90;;;;;;5072334;28;20047;-75
2021/12/04 14:49:09;;;;;;;44.45;18.30;;;5.10;99.90;;;;;;5073376;28;20048;-75
2021/12/04 14:51:36;;;;;;;50.85;19.73;;;5.10;99.90;;;;;;5073595;28;20048;-76
2021/12/04 14:54:02;;;;;;;43.92;17.92;;;5.10;99.90;;;;;;5073525;28;20053;-77
2021/12/04 14:56:30;;;;;;;41.58;18.02;;;5.10;99.90;;;;;;5073246;28;20056;-76
2021/12/04 14:58:57;;;;;;;43.25;16.65;;;5.10;99.90;;;;;;5073484;28;20131;-76
2021/12/04 15:01:26;;;;;;;38.63;17.50;;;5.20;99.90;;;;;;5072964;28;20474;-76
2021/12/04 15:03:59;;;;;;;43.22;17.55;;;5.10;99.90;;;;;;5073519;28;20401;-79
2021/12/04 15:06:27;;;;;;;45.22;18.45;;;5.10;99.90;;;;;;5073422;28;20080;-79
2021/12/04 15:09:03;;;;;;;40.47;17.23;;;5.10;99.90;;;;;;5073353;28;20069;-77
2021/12/04 15:11:34;;;;;;;46.70;18.48;;;5.10;99.90;;;;;;5073328;28;20048;-75
2021/12/04 15:14:08;;;;;;;43.67;18.00;;;5.10;99.90;;;;;;5073971;28;20045;-75
2021/12/04 15:16:46;;;;;;;39.55;16.80;;;5.10;99.90;;;;;;5074064;28;20048;-75
2021/12/04 15:19:20;;;;;;;35.88;16.92;;;5.10;99.90;;;;;;5073228;28;20143;-75
2021/12/04 15:21:59;;;;;;;35.13;16.58;;;5.10;99.90;;;;;;5073606;28;20390;-75
2021/12/04 15:24:33;;;;;;;35.78;17.00;;;5.10;99.90;;;;;;5072257;28;20052;-75
2021/12/04 15:27:08;;;;;;;35.58;16.00;;;5.10;99.90;;;;;;5073050;28;20044;-76
2021/12/04 15:29:35;;;;;;;30.70;15.05;;;5.10;99.90;;;;;;5073586;28;20393;-76
2021/12/04 15:32:08;;;;;;;30.80;15.43;;;5.00;99.90;;;;;;5073418;28;20119;-76
2021/12/04 15:34:49;;;;;;;32.83;15.63;;;5.10;99.90;;;;;;5073549;28;20091;-76
2021/12/04 15:37:42;;;;;;;31.98;15.52;;;5.00;99.90;;;;;;5076219;28;20041;-76
2021/12/04 15:40:24;;;;;;;32.70;16.17;;;5.10;99.90;;;;;;5077648;28;20396;-78
2021/12/04 15:45:52;;;;;;;36.20;18.00;;;5.00;99.90;;;;;;5076733;28;20178;-76
2021/12/04 15:49:05;;;;;;;32.10;14.77;;;5.00;99.90;;;;;;5076837;28;20048;-76
2021/12/04 15:53:58;;;;;;;31.50;16.08;;;5.00;99.90;;;;;;5076903;28;20059;-75
2021/12/04 15:56:35;;;;;;;30.17;15.25;;;5.00;99.90;;;;;;5076835;28;20052;-75
2021/12/04 15:59:00;;;;;;;31.73;15.68;;;5.00;99.90;;;;;;5076613;28;20052;-76
2021/12/04 16:01:29;;;;;;;29.75;15.18;;;5.00;99.90;;;;;;5076505;28;20496;-75
2021/12/04 16:03:56;;;;;;;33.60;15.48;;;5.00;99.90;;;;;;5076548;28;20084;-76
2021/12/04 16:06:21;;;;;;;32.83;15.13;;;5.10;99.90;;;;;;5076215;28;20052;-76